sensor_id;sensor_type;location;lat;lon;timestamp;pressure;altitude;pressure_sealevel;temperature
65316;BMP280;51920;53.952;10.292;2023-03-01T00:01:21;102697.69;;;-0.67
65316;BMP280;51920;53.952;10.292;2023-03-01T00:03:47;102692.56;;;-0.74
65316;BMP280;51920;53.952;10.292;2023-03-01T00:06:13;102698.34;;;-0.77
65316;BMP280;51920;53.952;10.292;2023-03-01T00:08:38;102695.13;;;-0.79
65316;BMP280;51920;53.952;10.292;2023-03-01T00:11:07;102697.31;;;-0.76
65316;BMP280;51920;53.952;10.292;2023-03-01T00:16:35;102702.63;;;-0.76
65316;BMP280;51920;53.952;10.292;2023-03-01T00:19:01;102699.97;;;-0.76
65316;BMP280;51920;53.952;10.292;2023-03-01T00:21:28;102695.94;;;-0.79
65316;BMP280;51920;53.952;10.292;2023-03-01T00:23:54;102696.44;;;-0.82
65316;BMP280;51920;53.952;10.292;2023-03-01T00:26:21;102692.97;;;-0.82
65316;BMP280;51920;53.952;10.292;2023-03-01T00:28:47;102689.91;;;-0.91
65316;BMP280;51920;53.952;10.292;2023-03-01T00:31:18;102692.34;;;-0.89
65316;BMP280;51920;53.952;10.292;2023-03-01T00:33:44;102689.44;;;-0.88
65316;BMP280;51920;53.952;10.292;2023-03-01T00:36:11;102702.75;;;-0.88
65316;BMP280;51920;53.952;10.292;2023-03-01T00:38:39;102712.91;;;-0.85
65316;BMP280;51920;53.952;10.292;2023-03-01T00:41:06;102702.19;;;-0.90
65316;BMP280;51920;53.952;10.292;2023-03-01T00:43:32;102704.03;;;-0.90
65316;BMP280;51920;53.952;10.292;2023-03-01T00:46:10;102689.53;;;-1.00
65316;BMP280;51920;53.952;10.292;2023-03-01T00:48:36;102693.75;;;-1.04
65316;BMP280;51920;53.952;10.292;2023-03-01T00:51:25;102692.63;;;-1.08
65316;BMP280;51920;53.952;10.292;2023-03-01T00:53:52;102696.31;;;-1.09
65316;BMP280;51920;53.952;10.292;2023-03-01T00:56:18;102693.09;;;-1.11
65316;BMP280;51920;53.952;10.292;2023-03-01T00:58:44;102688.50;;;-1.16
65316;BMP280;51920;53.952;10.292;2023-03-01T01:04:07;102678.75;;;-1.10
65316;BMP280;51920;53.952;10.292;2023-03-01T01:06:48;102678.75;;;-1.10
65316;BMP280;51920;53.952;10.292;2023-03-01T01:09:16;102679.56;;;-1.09
65316;BMP280;51920;53.952;10.292;2023-03-01T01:11:44;102661.13;;;-1.16
65316;BMP280;51920;53.952;10.292;2023-03-01T01:14:09;102663.84;;;-1.11
65316;BMP280;51920;53.952;10.292;2023-03-01T01:16:35;102666.91;;;-1.19
65316;BMP280;51920;53.952;10.292;2023-03-01T01:19:01;102665.88;;;-1.18
65316;BMP280;51920;53.952;10.292;2023-03-01T01:21:27;102664.25;;;-1.19
65316;BMP280;51920;53.952;10.292;2023-03-01T01:23:53;102662.66;;;-1.20
65316;BMP280;51920;53.952;10.292;2023-03-01T01:26:24;102660.06;;;-1.15
65316;BMP280;51920;53.952;10.292;2023-03-01T01:28:51;102656.91;;;-1.12
65316;BMP280;51920;53.952;10.292;2023-03-01T01:31:17;102648.44;;;-1.09
65316;BMP280;51920;53.952;10.292;2023-03-01T01:33:43;102645.31;;;-1.06
65316;BMP280;51920;53.952;10.292;2023-03-01T01:36:09;102650.38;;;-1.04
65316;BMP280;51920;53.952;10.292;2023-03-01T01:38:36;102642.22;;;-0.98
65316;BMP280;51920;53.952;10.292;2023-03-01T01:41:03;102644.38;;;-0.95
65316;BMP280;51920;53.952;10.292;2023-03-01T01:43:34;102647.59;;;-0.92
65316;BMP280;51920;53.952;10.292;2023-03-01T01:46:03;102641.38;;;-0.81
65316;BMP280;51920;53.952;10.292;2023-03-01T01:48:37;102645.13;;;-0.77
65316;BMP280;51920;53.952;10.292;2023-03-01T01:51:14;102657.41;;;-0.76
65316;BMP280;51920;53.952;10.292;2023-03-01T01:53:42;102658.69;;;-0.79
65316;BMP280;51920;53.952;10.292;2023-03-01T01:56:10;102645.69;;;-0.75
65316;BMP280;51920;53.952;10.292;2023-03-01T01:58:37;102651.06;;;-0.70
65316;BMP280;51920;53.952;10.292;2023-03-01T02:01:04;102649.50;;;-0.71
65316;BMP280;51920;53.952;10.292;2023-03-01T02:03:32;102648.16;;;-0.68
65316;BMP280;51920;53.952;10.292;2023-03-01T02:08:45;102638.56;;;-0.69
65316;BMP280;51920;53.952;10.292;2023-03-01T02:11:13;102641.50;;;-0.71
65316;BMP280;51920;53.952;10.292;2023-03-01T02:13:40;102634.31;;;-0.70
65316;BMP280;51920;53.952;10.292;2023-03-01T02:16:11;102640.44;;;-0.70
65316;BMP280;51920;53.952;10.292;2023-03-01T02:18:39;102636.66;;;-0.74
65316;BMP280;51920;53.952;10.292;2023-03-01T02:21:08;102641.13;;;-0.80
65316;BMP280;51920;53.952;10.292;2023-03-01T02:23:37;102633.88;;;-0.84
65316;BMP280;51920;53.952;10.292;2023-03-01T02:28:43;102628.06;;;-0.81
65316;BMP280;51920;53.952;10.292;2023-03-01T02:31:10;102623.28;;;-0.79
65316;BMP280;51920;53.952;10.292;2023-03-01T02:33:57;102619.00;;;-0.80
65316;BMP280;51920;53.952;10.292;2023-03-01T02:36:26;102611.63;;;-0.78
65316;BMP280;51920;53.952;10.292;2023-03-01T02:38:56;102607.63;;;-0.76
65316;BMP280;51920;53.952;10.292;2023-03-01T02:41:23;102604.44;;;-0.78
65316;BMP280;51920;53.952;10.292;2023-03-01T02:43:49;102598.56;;;-0.80
65316;BMP280;51920;53.952;10.292;2023-03-01T02:46:20;102597.69;;;-0.85
65316;BMP280;51920;53.952;10.292;2023-03-01T02:48:49;102598.25;;;-0.83
65316;BMP280;51920;53.952;10.292;2023-03-01T02:51:26;102600.34;;;-0.85
65316;BMP280;51920;53.952;10.292;2023-03-01T02:56:42;102586.97;;;-0.90
65316;BMP280;51920;53.952;10.292;2023-03-01T02:59:09;102590.38;;;-0.95
65316;BMP280;51920;53.952;10.292;2023-03-01T03:01:35;102592.97;;;-1.00
65316;BMP280;51920;53.952;10.292;2023-03-01T03:04:07;102590.56;;;-1.02
65316;BMP280;51920;53.952;10.292;2023-03-01T03:06:35;102586.31;;;-1.03
65316;BMP280;51920;53.952;10.292;2023-03-01T03:09:02;102591.06;;;-1.05
65316;BMP280;51920;53.952;10.292;2023-03-01T03:11:28;102590.34;;;-0.73
65316;BMP280;51920;53.952;10.292;2023-03-01T03:13:54;102594.56;;;-0.77
65316;BMP280;51920;53.952;10.292;2023-03-01T03:16:21;102589.94;;;-0.87
65316;BMP280;51920;53.952;10.292;2023-03-01T03:18:47;102606.66;;;-0.91
65316;BMP280;51920;53.952;10.292;2023-03-01T03:21:13;102588.44;;;-1.00
65316;BMP280;51920;53.952;10.292;2023-03-01T03:23:38;102590.47;;;-1.07
65316;BMP280;51920;53.952;10.292;2023-03-01T03:26:05;102595.31;;;-1.04
65316;BMP280;51920;53.952;10.292;2023-03-01T03:28:35;102592.66;;;-1.04
65316;BMP280;51920;53.952;10.292;2023-03-01T03:31:01;102590.25;;;-1.05
65316;BMP280;51920;53.952;10.292;2023-03-01T03:33:32;102592.03;;;-1.11
65316;BMP280;51920;53.952;10.292;2023-03-01T03:35:58;102583.50;;;-1.13
65316;BMP280;51920;53.952;10.292;2023-03-01T03:38:24;102575.28;;;-1.11
65316;BMP280;51920;53.952;10.292;2023-03-01T03:40:52;102576.38;;;-1.07
65316;BMP280;51920;53.952;10.292;2023-03-01T03:43:22;102564.78;;;-1.01
65316;BMP280;51920;53.952;10.292;2023-03-01T03:45:49;102564.47;;;-1.05
65316;BMP280;51920;53.952;10.292;2023-03-01T03:48:15;102564.97;;;-1.08
65316;BMP280;51920;53.952;10.292;2023-03-01T03:50:47;102566.81;;;-1.08
65316;BMP280;51920;53.952;10.292;2023-03-01T03:53:13;102558.84;;;-1.08
65316;BMP280;51920;53.952;10.292;2023-03-01T03:55:38;102561.75;;;-1.10
65316;BMP280;51920;53.952;10.292;2023-03-01T03:58:06;102557.47;;;-1.11
65316;BMP280;51920;53.952;10.292;2023-03-01T04:00:36;102560.59;;;-1.14
65316;BMP280;51920;53.952;10.292;2023-03-01T04:03:02;102556.84;;;-1.18
65316;BMP280;51920;53.952;10.292;2023-03-01T04:05:28;102553.88;;;-1.22
65316;BMP280;51920;53.952;10.292;2023-03-01T04:07:54;102556.53;;;-1.22
65316;BMP280;51920;53.952;10.292;2023-03-01T04:10:28;102563.78;;;-1.17
65316;BMP280;51920;53.952;10.292;2023-03-01T04:12:54;102565.94;;;-1.14
65316;BMP280;51920;53.952;10.292;2023-03-01T04:15:22;102569.34;;;-1.19
65316;BMP280;51920;53.952;10.292;2023-03-01T04:17:51;102567.91;;;-1.26
65316;BMP280;51920;53.952;10.292;2023-03-01T04:20:21;102568.88;;;-1.33
65316;BMP280;51920;53.952;10.292;2023-03-01T04:25:23;102567.34;;;-1.28
65316;BMP280;51920;53.952;10.292;2023-03-01T04:27:51;102577.72;;;-1.27
65316;BMP280;51920;53.952;10.292;2023-03-01T04:30:17;102572.47;;;-1.22
65316;BMP280;51920;53.952;10.292;2023-03-01T04:32:42;102569.59;;;-1.20
65316;BMP280;51920;53.952;10.292;2023-03-01T04:35:08;102574.91;;;-1.20
65316;BMP280;51920;53.952;10.292;2023-03-01T04:37:33;102563.72;;;-1.22
65316;BMP280;51920;53.952;10.292;2023-03-01T04:40:01;102567.41;;;-1.23
65316;BMP280;51920;53.952;10.292;2023-03-01T04:42:26;102562.88;;;-1.23
65316;BMP280;51920;53.952;10.292;2023-03-01T04:44:52;102555.72;;;-1.22
65316;BMP280;51920;53.952;10.292;2023-03-01T04:47:17;102553.56;;;-1.25
65316;BMP280;51920;53.952;10.292;2023-03-01T04:49:43;102560.19;;;-1.28
65316;BMP280;51920;53.952;10.292;2023-03-01T04:52:08;102556.72;;;-1.28
65316;BMP280;51920;53.952;10.292;2023-03-01T04:54:35;102556.63;;;-1.34
65316;BMP280;51920;53.952;10.292;2023-03-01T04:57:01;102554.28;;;-1.30
65316;BMP280;51920;53.952;10.292;2023-03-01T04:59:27;102558.25;;;-1.33
65316;BMP280;51920;53.952;10.292;2023-03-01T05:01:54;102557.84;;;-1.24
65316;BMP280;51920;53.952;10.292;2023-03-01T05:04:24;102567.41;;;-1.23
65316;BMP280;51920;53.952;10.292;2023-03-01T05:06:49;102560.97;;;-1.27
65316;BMP280;51920;53.952;10.292;2023-03-01T05:09:15;102565.25;;;-1.26
65316;BMP280;51920;53.952;10.292;2023-03-01T05:11:41;102568.97;;;-1.27
65316;BMP280;51920;53.952;10.292;2023-03-01T05:14:08;102569.53;;;-1.25
65316;BMP280;51920;53.952;10.292;2023-03-01T05:16:34;102567.09;;;-1.27
65316;BMP280;51920;53.952;10.292;2023-03-01T05:19:02;102566.31;;;-1.27
65316;BMP280;51920;53.952;10.292;2023-03-01T05:21:37;102562.25;;;-1.30
65316;BMP280;51920;53.952;10.292;2023-03-01T05:24:23;102565.88;;;-1.36
65316;BMP280;51920;53.952;10.292;2023-03-01T05:26:50;102563.09;;;-1.29
65316;BMP280;51920;53.952;10.292;2023-03-01T05:29:20;102559.38;;;-1.28
65316;BMP280;51920;53.952;10.292;2023-03-01T05:31:53;102558.09;;;-1.26
65316;BMP280;51920;53.952;10.292;2023-03-01T05:34:24;102547.38;;;-1.31
65316;BMP280;51920;53.952;10.292;2023-03-01T05:36:51;102542.84;;;-1.30
65316;BMP280;51920;53.952;10.292;2023-03-01T05:39:19;102542.38;;;-1.27
65316;BMP280;51920;53.952;10.292;2023-03-01T05:41:46;102545.03;;;-1.27
65316;BMP280;51920;53.952;10.292;2023-03-01T05:44:12;102547.94;;;-1.29
65316;BMP280;51920;53.952;10.292;2023-03-01T05:46:37;102556.94;;;-1.30
65316;BMP280;51920;53.952;10.292;2023-03-01T05:49:02;102559.28;;;-1.34
65316;BMP280;51920;53.952;10.292;2023-03-01T05:51:29;102555.66;;;-1.27
65316;BMP280;51920;53.952;10.292;2023-03-01T05:53:54;102561.13;;;-1.17
65316;BMP280;51920;53.952;10.292;2023-03-01T05:56:20;102556.28;;;-1.20
65316;BMP280;51920;53.952;10.292;2023-03-01T05:58:50;102554.97;;;-1.18
65316;BMP280;51920;53.952;10.292;2023-03-01T06:01:15;102555.22;;;-1.19
65316;BMP280;51920;53.952;10.292;2023-03-01T06:03:41;102559.03;;;-1.15
65316;BMP280;51920;53.952;10.292;2023-03-01T06:06:07;102551.53;;;-1.18
65316;BMP280;51920;53.952;10.292;2023-03-01T06:08:32;102550.53;;;-1.12
65316;BMP280;51920;53.952;10.292;2023-03-01T06:10:57;102558.50;;;-1.12
65316;BMP280;51920;53.952;10.292;2023-03-01T06:13:23;102554.50;;;-1.15
65316;BMP280;51920;53.952;10.292;2023-03-01T06:15:49;102554.81;;;-1.11
65316;BMP280;51920;53.952;10.292;2023-03-01T06:18:14;102556.91;;;-1.13
65316;BMP280;51920;53.952;10.292;2023-03-01T06:20:40;102553.19;;;-1.12
65316;BMP280;51920;53.952;10.292;2023-03-01T06:23:05;102547.13;;;-1.07
65316;BMP280;51920;53.952;10.292;2023-03-01T06:25:31;102549.78;;;-1.07
65316;BMP280;51920;53.952;10.292;2023-03-01T06:27:57;102538.84;;;-1.11
65316;BMP280;51920;53.952;10.292;2023-03-01T06:30:24;102541.16;;;-0.98
65316;BMP280;51920;53.952;10.292;2023-03-01T06:32:50;102546.19;;;-0.96
65316;BMP280;51920;53.952;10.292;2023-03-01T06:35:17;102538.50;;;-0.98
65316;BMP280;51920;53.952;10.292;2023-03-01T06:37:43;102537.16;;;-0.95
65316;BMP280;51920;53.952;10.292;2023-03-01T06:40:09;102529.97;;;-0.95
65316;BMP280;51920;53.952;10.292;2023-03-01T06:42:38;102542.19;;;-0.99
65316;BMP280;51920;53.952;10.292;2023-03-01T06:45:06;102541.63;;;-1.01
65316;BMP280;51920;53.952;10.292;2023-03-01T06:47:32;102540.88;;;-0.96
65316;BMP280;51920;53.952;10.292;2023-03-01T06:49:59;102533.66;;;-1.01
65316;BMP280;51920;53.952;10.292;2023-03-01T06:52:24;102530.50;;;-0.98
65316;BMP280;51920;53.952;10.292;2023-03-01T06:54:50;102517.09;;;-1.08
65316;BMP280;51920;53.952;10.292;2023-03-01T06:57:15;102535.31;;;-0.95
65316;BMP280;51920;53.952;10.292;2023-03-01T06:59:41;102531.59;;;-0.93
65316;BMP280;51920;53.952;10.292;2023-03-01T07:02:10;102535.13;;;-0.88
65316;BMP280;51920;53.952;10.292;2023-03-01T07:04:36;102527.94;;;-0.87
65316;BMP280;51920;53.952;10.292;2023-03-01T07:07:01;102533.91;;;-0.75
65316;BMP280;51920;53.952;10.292;2023-03-01T07:09:27;102533.06;;;-0.81
65316;BMP280;51920;53.952;10.292;2023-03-01T07:11:52;102536.53;;;-0.80
65316;BMP280;51920;53.952;10.292;2023-03-01T07:14:17;102534.28;;;-0.66
65316;BMP280;51920;53.952;10.292;2023-03-01T07:16:45;102539.59;;;-0.66
65316;BMP280;51920;53.952;10.292;2023-03-01T07:19:10;102539.34;;;-0.65
65316;BMP280;51920;53.952;10.292;2023-03-01T07:21:36;102543.41;;;-0.57
65316;BMP280;51920;53.952;10.292;2023-03-01T07:24:05;102541.88;;;-0.53
65316;BMP280;51920;53.952;10.292;2023-03-01T07:26:34;102544.00;;;-0.55
65316;BMP280;51920;53.952;10.292;2023-03-01T07:29:00;102543.72;;;-0.53
65316;BMP280;51920;53.952;10.292;2023-03-01T07:31:26;102540.56;;;-0.50
65316;BMP280;51920;53.952;10.292;2023-03-01T07:33:54;102545.25;;;-0.35
65316;BMP280;51920;53.952;10.292;2023-03-01T07:36:19;102547.97;;;-0.30
65316;BMP280;51920;53.952;10.292;2023-03-01T07:38:45;102545.34;;;-0.25
65316;BMP280;51920;53.952;10.292;2023-03-01T07:41:10;102545.88;;;-0.23
65316;BMP280;51920;53.952;10.292;2023-03-01T07:43:36;102551.56;;;-0.14
65316;BMP280;51920;53.952;10.292;2023-03-01T07:46:02;102558.00;;;-0.10
65316;BMP280;51920;53.952;10.292;2023-03-01T07:48:28;102552.47;;;0.02
65316;BMP280;51920;53.952;10.292;2023-03-01T07:50:54;102556.75;;;0.03
65316;BMP280;51920;53.952;10.292;2023-03-01T07:53:19;102554.34;;;0.01
65316;BMP280;51920;53.952;10.292;2023-03-01T07:55:44;102564.88;;;0.18
65316;BMP280;51920;53.952;10.292;2023-03-01T07:58:10;102571.03;;;0.24
65316;BMP280;51920;53.952;10.292;2023-03-01T08:00:35;102574.25;;;0.26
65316;BMP280;51920;53.952;10.292;2023-03-01T08:03:01;102567.88;;;0.27
65316;BMP280;51920;53.952;10.292;2023-03-01T08:05:27;102576.13;;;0.35
65316;BMP280;51920;53.952;10.292;2023-03-01T08:07:52;102575.09;;;0.31
65316;BMP280;51920;53.952;10.292;2023-03-01T08:10:19;102563.09;;;0.29
65316;BMP280;51920;53.952;10.292;2023-03-01T08:12:44;102567.38;;;0.40
65316;BMP280;51920;53.952;10.292;2023-03-01T08:15:11;102567.16;;;0.47
65316;BMP280;51920;53.952;10.292;2023-03-01T08:17:36;102571.13;;;0.44
65316;BMP280;51920;53.952;10.292;2023-03-01T08:20:03;102566.41;;;0.56
65316;BMP280;51920;53.952;10.292;2023-03-01T08:22:31;102557.84;;;0.49
65316;BMP280;51920;53.952;10.292;2023-03-01T08:24:56;102548.72;;;0.40
65316;BMP280;51920;53.952;10.292;2023-03-01T08:27:21;102556.78;;;0.50
65316;BMP280;51920;53.952;10.292;2023-03-01T08:29:47;102561.03;;;0.51
65316;BMP280;51920;53.952;10.292;2023-03-01T08:32:12;102558.63;;;0.45
65316;BMP280;51920;53.952;10.292;2023-03-01T08:34:38;102556.22;;;0.43
65316;BMP280;51920;53.952;10.292;2023-03-01T08:37:03;102549.59;;;0.51
65316;BMP280;51920;53.952;10.292;2023-03-01T08:39:29;102558.97;;;0.64
65316;BMP280;51920;53.952;10.292;2023-03-01T08:41:54;102558.22;;;0.68
65316;BMP280;51920;53.952;10.292;2023-03-01T08:44:20;102559.03;;;0.74
65316;BMP280;51920;53.952;10.292;2023-03-01T08:46:46;102564.88;;;0.66
65316;BMP280;51920;53.952;10.292;2023-03-01T08:49:17;102568.50;;;0.49
65316;BMP280;51920;53.952;10.292;2023-03-01T08:51:44;102571.75;;;0.56
65316;BMP280;51920;53.952;10.292;2023-03-01T08:54:12;102563.50;;;0.58
65316;BMP280;51920;53.952;10.292;2023-03-01T08:56:37;102562.28;;;0.81
65316;BMP280;51920;53.952;10.292;2023-03-01T08:59:03;102573.25;;;0.90
65316;BMP280;51920;53.952;10.292;2023-03-01T09:01:29;102564.94;;;0.81
65316;BMP280;51920;53.952;10.292;2023-03-01T09:03:54;102572.38;;;0.74
65316;BMP280;51920;53.952;10.292;2023-03-01T09:06:20;102569.44;;;0.75
65316;BMP280;51920;53.952;10.292;2023-03-01T09:08:48;102570.09;;;0.98
65316;BMP280;51920;53.952;10.292;2023-03-01T09:11:16;102578.38;;;1.02
65316;BMP280;51920;53.952;10.292;2023-03-01T09:13:43;102575.19;;;1.10
65316;BMP280;51920;53.952;10.292;2023-03-01T09:16:11;102580.78;;;1.03
65316;BMP280;51920;53.952;10.292;2023-03-01T09:18:36;102577.88;;;1.15
65316;BMP280;51920;53.952;10.292;2023-03-01T09:21:10;102576.03;;;1.36
65316;BMP280;51920;53.952;10.292;2023-03-01T09:23:38;102574.72;;;1.23
65316;BMP280;51920;53.952;10.292;2023-03-01T09:26:09;102574.72;;;1.28
65316;BMP280;51920;53.952;10.292;2023-03-01T09:28:38;102581.69;;;1.45
65316;BMP280;51920;53.952;10.292;2023-03-01T09:31:04;102588.34;;;1.27
65316;BMP280;51920;53.952;10.292;2023-03-01T09:33:31;102585.28;;;0.92
65316;BMP280;51920;53.952;10.292;2023-03-01T09:35:59;102585.28;;;0.92
65316;BMP280;51920;53.952;10.292;2023-03-01T09:38:25;102589.66;;;1.29
65316;BMP280;51920;53.952;10.292;2023-03-01T09:40:51;102590.50;;;1.56
65316;BMP280;51920;53.952;10.292;2023-03-01T09:43:30;102592.94;;;1.93
65316;BMP280;51920;53.952;10.292;2023-03-01T09:46:02;102592.94;;;1.83
65316;BMP280;51920;53.952;10.292;2023-03-01T09:48:34;102590.78;;;1.95
65316;BMP280;51920;53.952;10.292;2023-03-01T09:51:06;102583.31;;;1.71
65316;BMP280;51920;53.952;10.292;2023-03-01T09:53:33;102589.22;;;2.04
65316;BMP280;51920;53.952;10.292;2023-03-01T09:56:20;102583.84;;;1.99
65316;BMP280;51920;53.952;10.292;2023-03-01T09:58:53;102583.59;;;1.96
65316;BMP280;51920;53.952;10.292;2023-03-01T10:01:33;102589.19;;;1.99
65316;BMP280;51920;53.952;10.292;2023-03-01T10:04:05;102579.31;;;2.05
65316;BMP280;51920;53.952;10.292;2023-03-01T10:06:36;102572.88;;;2.06
65316;BMP280;51920;53.952;10.292;2023-03-01T10:09:15;102581.19;;;1.89
65316;BMP280;51920;53.952;10.292;2023-03-01T10:11:45;102577.72;;;1.83
65316;BMP280;51920;53.952;10.292;2023-03-01T10:14:27;102566.72;;;1.95
65316;BMP280;51920;53.952;10.292;2023-03-01T10:17:07;102573.16;;;1.94
65316;BMP280;51920;53.952;10.292;2023-03-01T10:19:45;102577.16;;;2.22
65316;BMP280;51920;53.952;10.292;2023-03-01T10:22:16;102574.16;;;2.34
65316;BMP280;51920;53.952;10.292;2023-03-01T10:24:43;102571.19;;;2.51
65316;BMP280;51920;53.952;10.292;2023-03-01T10:32:17;102575.16;;;2.64
65316;BMP280;51920;53.952;10.292;2023-03-01T10:34:43;102571.19;;;2.46
65316;BMP280;51920;53.952;10.292;2023-03-01T10:37:15;102571.84;;;2.82
65316;BMP280;51920;53.952;10.292;2023-03-01T10:39:57;102570.56;;;3.24
65316;BMP280;51920;53.952;10.292;2023-03-01T10:42:32;102562.41;;;3.00
65316;BMP280;51920;53.952;10.292;2023-03-01T10:45:15;102561.53;;;3.10
65316;BMP280;51920;53.952;10.292;2023-03-01T10:47:41;102561.00;;;3.13
65316;BMP280;51920;53.952;10.292;2023-03-01T10:50:21;102556.75;;;3.02
65316;BMP280;51920;53.952;10.292;2023-03-01T10:52:59;102558.13;;;3.39
65316;BMP280;51920;53.952;10.292;2023-03-01T10:55:39;102552.13;;;3.57
65316;BMP280;51920;53.952;10.292;2023-03-01T11:03:40;102552.22;;;3.76
65316;BMP280;51920;53.952;10.292;2023-03-01T11:06:20;102546.31;;;4.03
65316;BMP280;51920;53.952;10.292;2023-03-01T11:08:48;102551.00;;;3.58
65316;BMP280;51920;53.952;10.292;2023-03-01T11:11:20;102549.72;;;3.85
65316;BMP280;51920;53.952;10.292;2023-03-01T11:14:06;102547.25;;;4.18
65316;BMP280;51920;53.952;10.292;2023-03-01T11:16:33;102545.75;;;4.55
65316;BMP280;51920;53.952;10.292;2023-03-01T11:21:37;102540.50;;;4.82
65316;BMP280;51920;53.952;10.292;2023-03-01T11:24:06;102539.81;;;4.96
65316;BMP280;51920;53.952;10.292;2023-03-01T11:26:36;102546.69;;;4.64
65316;BMP280;51920;53.952;10.292;2023-03-01T11:29:06;102535.66;;;4.65
65316;BMP280;51920;53.952;10.292;2023-03-01T11:31:33;102537.75;;;5.25
65316;BMP280;51920;53.952;10.292;2023-03-01T11:34:12;102540.78;;;5.19
65316;BMP280;51920;53.952;10.292;2023-03-01T11:36:54;102536.13;;;5.24
65316;BMP280;51920;53.952;10.292;2023-03-01T11:42:17;102526.22;;;5.39
65316;BMP280;51920;53.952;10.292;2023-03-01T11:44:46;102526.75;;;5.22
65316;BMP280;51920;53.952;10.292;2023-03-01T11:47:31;102536.50;;;4.99
65316;BMP280;51920;53.952;10.292;2023-03-01T11:58:40;102526.09;;;5.30
65316;BMP280;51920;53.952;10.292;2023-03-01T12:01:26;102526.03;;;5.49
65316;BMP280;51920;53.952;10.292;2023-03-01T12:12:24;102525.66;;;5.70
65316;BMP280;51920;53.952;10.292;2023-03-01T12:18:13;102521.97;;;5.65
65316;BMP280;51920;53.952;10.292;2023-03-01T12:23:56;102518.03;;;5.30
65316;BMP280;51920;53.952;10.292;2023-03-01T12:40:51;102496.34;;;4.94
65316;BMP280;51920;53.952;10.292;2023-03-01T12:49:08;102488.84;;;4.91
65316;BMP280;51920;53.952;10.292;2023-03-01T12:51:37;102481.91;;;4.71
65316;BMP280;51920;53.952;10.292;2023-03-01T12:54:27;102482.53;;;4.62
65316;BMP280;51920;53.952;10.292;2023-03-01T12:56:55;102479.72;;;4.54
65316;BMP280;51920;53.952;10.292;2023-03-01T12:59:34;102475.94;;;4.74
65316;BMP280;51920;53.952;10.292;2023-03-01T13:02:26;102476.06;;;4.82
65316;BMP280;51920;53.952;10.292;2023-03-01T13:10:50;102471.66;;;4.73
65316;BMP280;51920;53.952;10.292;2023-03-01T13:13:22;102470.34;;;5.22
65316;BMP280;51920;53.952;10.292;2023-03-01T13:15:48;102468.38;;;4.95
65316;BMP280;51920;53.952;10.292;2023-03-01T13:23:21;102461.22;;;4.71
65316;BMP280;51920;53.952;10.292;2023-03-01T13:28:46;102455.78;;;4.76
65316;BMP280;51920;53.952;10.292;2023-03-01T13:36:10;102440.03;;;4.70
65316;BMP280;51920;53.952;10.292;2023-03-01T13:38:45;102436.50;;;4.88
65316;BMP280;51920;53.952;10.292;2023-03-01T13:41:14;102437.56;;;4.73
65316;BMP280;51920;53.952;10.292;2023-03-01T13:43:46;102437.97;;;4.80
65316;BMP280;51920;53.952;10.292;2023-03-01T13:46:22;102432.84;;;4.65
65316;BMP280;51920;53.952;10.292;2023-03-01T13:48:55;102439.75;;;4.71
65316;BMP280;51920;53.952;10.292;2023-03-01T13:51:27;102435.09;;;4.58
65316;BMP280;51920;53.952;10.292;2023-03-01T13:53:54;102432.03;;;4.83
65316;BMP280;51920;53.952;10.292;2023-03-01T13:56:26;102426.81;;;4.73
65316;BMP280;51920;53.952;10.292;2023-03-01T13:58:54;102426.97;;;4.63
65316;BMP280;51920;53.952;10.292;2023-03-01T14:03:49;102414.97;;;4.60
65316;BMP280;51920;53.952;10.292;2023-03-01T14:06:18;102423.78;;;4.61
65316;BMP280;51920;53.952;10.292;2023-03-01T14:08:47;102422.50;;;4.58
65316;BMP280;51920;53.952;10.292;2023-03-01T14:13:54;102429.91;;;4.80
65316;BMP280;51920;53.952;10.292;2023-03-01T14:21:35;102411.25;;;4.89
65316;BMP280;51920;53.952;10.292;2023-03-01T14:24:01;102414.44;;;4.91
65316;BMP280;51920;53.952;10.292;2023-03-01T14:26:27;102412.34;;;4.88
65316;BMP280;51920;53.952;10.292;2023-03-01T14:28:53;102411.19;;;4.94
65316;BMP280;51920;53.952;10.292;2023-03-01T14:31:40;102400.66;;;4.98
65316;BMP280;51920;53.952;10.292;2023-03-01T14:34:19;102404.44;;;4.97
65316;BMP280;51920;53.952;10.292;2023-03-01T14:36:44;102400.16;;;4.96
65316;BMP280;51920;53.952;10.292;2023-03-01T14:39:18;102398.69;;;4.84
65316;BMP280;51920;53.952;10.292;2023-03-01T14:41:44;102397.47;;;4.96
65316;BMP280;51920;53.952;10.292;2023-03-01T14:44:18;102399.31;;;4.81
65316;BMP280;51920;53.952;10.292;2023-03-01T14:46:45;102397.22;;;4.78
65316;BMP280;51920;53.952;10.292;2023-03-01T14:49:14;102393.75;;;4.92
65316;BMP280;51920;53.952;10.292;2023-03-01T14:51:43;102393.53;;;4.88
65316;BMP280;51920;53.952;10.292;2023-03-01T14:54:43;102390.28;;;4.58
65316;BMP280;51920;53.952;10.292;2023-03-01T14:57:19;102394.34;;;4.56
65316;BMP280;51920;53.952;10.292;2023-03-01T14:59:47;102386.28;;;4.56
65316;BMP280;51920;53.952;10.292;2023-03-01T15:02:18;102393.84;;;4.54
65316;BMP280;51920;53.952;10.292;2023-03-01T15:05:03;102382.66;;;4.46
65316;BMP280;51920;53.952;10.292;2023-03-01T15:07:31;102382.94;;;4.26
65316;BMP280;51920;53.952;10.292;2023-03-01T15:09:59;102383.13;;;4.16
65316;BMP280;51920;53.952;10.292;2023-03-01T15:14:57;102387.69;;;3.96
65316;BMP280;51920;53.952;10.292;2023-03-01T15:17:35;102388.91;;;3.80
65316;BMP280;51920;53.952;10.292;2023-03-01T15:20:03;102382.56;;;3.76
65316;BMP280;51920;53.952;10.292;2023-03-01T15:22:30;102387.81;;;3.57
65316;BMP280;51920;53.952;10.292;2023-03-01T15:24:55;102388.19;;;3.26
65316;BMP280;51920;53.952;10.292;2023-03-01T15:27:24;102401.41;;;3.12
65316;BMP280;51920;53.952;10.292;2023-03-01T15:29:59;102403.44;;;2.91
65316;BMP280;51920;53.952;10.292;2023-03-01T15:32:35;102404.03;;;2.88
65316;BMP280;51920;53.952;10.292;2023-03-01T15:35:39;102407.22;;;2.90
65316;BMP280;51920;53.952;10.292;2023-03-01T15:40:56;102410.84;;;2.70
65316;BMP280;51920;53.952;10.292;2023-03-01T15:43:48;102406.13;;;2.52
65316;BMP280;51920;53.952;10.292;2023-03-01T15:46:30;102407.50;;;2.44
65316;BMP280;51920;53.952;10.292;2023-03-01T15:48:59;102392.91;;;2.31
65316;BMP280;51920;53.952;10.292;2023-03-01T15:51:33;102400.41;;;2.24